sensor_id;sensor_type;location;lat;lon;timestamp;P1;durP1;ratioP1;P2;durP2;ratioP2
62832;SDS011;48891;49.220;6.920;2023-06-26T00:02:16;9.67;;;7.23;;
62832;SDS011;48891;49.220;6.920;2023-06-26T00:04:42;9.13;;;7.18;;
62832;SDS011;48891;49.220;6.920;2023-06-26T00:07:07;10.65;;;7.00;;
62832;SDS011;48891;49.220;6.920;2023-06-26T00:09:32;9.43;;;7.43;;
62832;SDS011;48891;49.220;6.920;2023-06-26T00:11:57;8.93;;;7.43;;
62832;SDS011;48891;49.220;6.920;2023-06-26T00:14:22;9.77;;;7.80;;
62832;SDS011;48891;49.220;6.920;2023-06-26T00:16:47;10.30;;;7.07;;
62832;SDS011;48891;49.220;6.920;2023-06-26T00:19:13;9.03;;;7.07;;
62832;SDS011;48891;49.220;6.920;2023-06-26T00:21:38;9.52;;;7.32;;
62832;SDS011;48891;49.220;6.920;2023-06-26T00:24:03;10.25;;;7.15;;
62832;SDS011;48891;49.220;6.920;2023-06-26T00:26:28;7.97;;;6.97;;
62832;SDS011;48891;49.220;6.920;2023-06-26T00:28:53;8.77;;;7.43;;
62832;SDS011;48891;49.220;6.920;2023-06-26T00:31:18;9.35;;;6.80;;
62832;SDS011;48891;49.220;6.920;2023-06-26T00:33:43;10.15;;;7.03;;
62832;SDS011;48891;49.220;6.920;2023-06-26T00:36:09;10.20;;;7.30;;
62832;SDS011;48891;49.220;6.920;2023-06-26T00:38:34;9.43;;;6.78;;
62832;SDS011;48891;49.220;6.920;2023-06-26T00:40:59;9.48;;;7.45;;
62832;SDS011;48891;49.220;6.920;2023-06-26T00:43:25;9.23;;;7.80;;
62832;SDS011;48891;49.220;6.920;2023-06-26T00:45:50;9.48;;;7.15;;
62832;SDS011;48891;49.220;6.920;2023-06-26T00:48:15;9.30;;;7.25;;
62832;SDS011;48891;49.220;6.920;2023-06-26T00:50:41;9.63;;;7.18;;
62832;SDS011;48891;49.220;6.920;2023-06-26T00:53:06;9.52;;;7.00;;
62832;SDS011;48891;49.220;6.920;2023-06-26T00:55:31;10.68;;;7.20;;
62832;SDS011;48891;49.220;6.920;2023-06-26T00:57:56;8.20;;;6.97;;
62832;SDS011;48891;49.220;6.920;2023-06-26T01:00:21;9.13;;;6.97;;
62832;SDS011;48891;49.220;6.920;2023-06-26T01:02:46;9.43;;;7.25;;
62832;SDS011;48891;49.220;6.920;2023-06-26T01:05:12;8.57;;;7.07;;
62832;SDS011;48891;49.220;6.920;2023-06-26T01:07:37;8.75;;;7.07;;
62832;SDS011;48891;49.220;6.920;2023-06-26T01:10:06;9.95;;;7.10;;
62832;SDS011;48891;49.220;6.920;2023-06-26T01:12:31;9.23;;;7.00;;
62832;SDS011;48891;49.220;6.920;2023-06-26T01:14:57;9.13;;;6.78;;
62832;SDS011;48891;49.220;6.920;2023-06-26T01:17:22;9.65;;;7.13;;
62832;SDS011;48891;49.220;6.920;2023-06-26T01:19:47;9.27;;;7.93;;
62832;SDS011;48891;49.220;6.920;2023-06-26T01:24:38;9.13;;;7.13;;
62832;SDS011;48891;49.220;6.920;2023-06-26T01:27:03;8.38;;;6.97;;
62832;SDS011;48891;49.220;6.920;2023-06-26T01:29:30;8.50;;;6.70;;
62832;SDS011;48891;49.220;6.920;2023-06-26T01:31:55;8.68;;;6.97;;
62832;SDS011;48891;49.220;6.920;2023-06-26T01:34:21;9.52;;;7.28;;
62832;SDS011;48891;49.220;6.920;2023-06-26T01:36:46;9.20;;;7.07;;
62832;SDS011;48891;49.220;6.920;2023-06-26T01:39:15;9.90;;;6.80;;
62832;SDS011;48891;49.220;6.920;2023-06-26T01:41:40;8.70;;;6.82;;
62832;SDS011;48891;49.220;6.920;2023-06-26T01:46:46;8.40;;;6.32;;
62832;SDS011;48891;49.220;6.920;2023-06-26T01:51:55;9.95;;;7.28;;
62832;SDS011;48891;49.220;6.920;2023-06-26T01:54:22;10.02;;;7.20;;
62832;SDS011;48891;49.220;6.920;2023-06-26T01:56:49;9.68;;;7.30;;
62832;SDS011;48891;49.220;6.920;2023-06-26T01:59:14;10.38;;;7.03;;
62832;SDS011;48891;49.220;6.920;2023-06-26T02:01:40;8.98;;;6.78;;
62832;SDS011;48891;49.220;6.920;2023-06-26T02:04:05;8.98;;;6.80;;
62832;SDS011;48891;49.220;6.920;2023-06-26T02:06:30;9.50;;;7.05;;
62832;SDS011;48891;49.220;6.920;2023-06-26T02:08:55;9.63;;;6.97;;
62832;SDS011;48891;49.220;6.920;2023-06-26T02:11:20;8.52;;;6.55;;
62832;SDS011;48891;49.220;6.920;2023-06-26T02:13:45;8.95;;;6.68;;
62832;SDS011;48891;49.220;6.920;2023-06-26T02:16:10;8.68;;;6.97;;
62832;SDS011;48891;49.220;6.920;2023-06-26T02:18:35;9.23;;;7.28;;
62832;SDS011;48891;49.220;6.920;2023-06-26T02:21:02;10.10;;;7.05;;
62832;SDS011;48891;49.220;6.920;2023-06-26T02:23:28;9.07;;;6.80;;
62832;SDS011;48891;49.220;6.920;2023-06-26T02:25:53;8.35;;;6.78;;
62832;SDS011;48891;49.220;6.920;2023-06-26T02:28:18;9.15;;;7.03;;
62832;SDS011;48891;49.220;6.920;2023-06-26T02:30:43;8.35;;;6.50;;
62832;SDS011;48891;49.220;6.920;2023-06-26T02:33:08;8.07;;;6.60;;
62832;SDS011;48891;49.220;6.920;2023-06-26T02:35:33;9.10;;;6.65;;
62832;SDS011;48891;49.220;6.920;2023-06-26T02:37:58;8.43;;;6.50;;
62832;SDS011;48891;49.220;6.920;2023-06-26T02:40:23;9.35;;;6.75;;
62832;SDS011;48891;49.220;6.920;2023-06-26T02:42:49;8.32;;;6.10;;
62832;SDS011;48891;49.220;6.920;2023-06-26T02:45:14;8.18;;;5.80;;
62832;SDS011;48891;49.220;6.920;2023-06-26T02:47:39;9.07;;;6.72;;
62832;SDS011;48891;49.220;6.920;2023-06-26T02:50:05;8.30;;;6.30;;
62832;SDS011;48891;49.220;6.920;2023-06-26T02:52:30;8.57;;;6.40;;
62832;SDS011;48891;49.220;6.920;2023-06-26T02:54:55;10.77;;;6.47;;
62832;SDS011;48891;49.220;6.920;2023-06-26T02:57:20;8.27;;;6.40;;
62832;SDS011;48891;49.220;6.920;2023-06-26T02:59:45;7.93;;;6.00;;
62832;SDS011;48891;49.220;6.920;2023-06-26T03:02:10;8.43;;;6.10;;
62832;SDS011;48891;49.220;6.920;2023-06-26T03:04:35;8.02;;;6.72;;
62832;SDS011;48891;49.220;6.920;2023-06-26T03:07:00;8.75;;;6.47;;
62832;SDS011;48891;49.220;6.920;2023-06-26T03:09:25;7.90;;;6.22;;
62832;SDS011;48891;49.220;6.920;2023-06-26T03:11:51;9.60;;;6.65;;
62832;SDS011;48891;49.220;6.920;2023-06-26T03:14:16;7.40;;;6.13;;
62832;SDS011;48891;49.220;6.920;2023-06-26T03:16:41;7.72;;;5.95;;
62832;SDS011;48891;49.220;6.920;2023-06-26T03:19:06;7.50;;;5.88;;
62832;SDS011;48891;49.220;6.920;2023-06-26T03:21:32;8.45;;;6.03;;
62832;SDS011;48891;49.220;6.920;2023-06-26T03:23:57;8.43;;;6.47;;
62832;SDS011;48891;49.220;6.920;2023-06-26T03:26:22;7.82;;;6.30;;
62832;SDS011;48891;49.220;6.920;2023-06-26T03:28:47;7.50;;;5.97;;
62832;SDS011;48891;49.220;6.920;2023-06-26T03:31:12;8.25;;;5.97;;
62832;SDS011;48891;49.220;6.920;2023-06-26T03:33:37;7.25;;;5.72;;
62832;SDS011;48891;49.220;6.920;2023-06-26T03:36:03;7.45;;;5.88;;
62832;SDS011;48891;49.220;6.920;2023-06-26T03:38:28;7.32;;;5.68;;
62832;SDS011;48891;49.220;6.920;2023-06-26T03:40:53;8.48;;;6.13;;
62832;SDS011;48891;49.220;6.920;2023-06-26T03:43:18;7.80;;;6.00;;
62832;SDS011;48891;49.220;6.920;2023-06-26T03:45:43;7.88;;;5.85;;
62832;SDS011;48891;49.220;6.920;2023-06-26T03:48:08;7.57;;;6.15;;
62832;SDS011;48891;49.220;6.920;2023-06-26T03:50:33;8.38;;;6.15;;
62832;SDS011;48891;49.220;6.920;2023-06-26T03:52:58;7.50;;;6.03;;
62832;SDS011;48891;49.220;6.920;2023-06-26T03:55:24;7.95;;;6.00;;
62832;SDS011;48891;49.220;6.920;2023-06-26T03:57:49;8.07;;;6.10;;
62832;SDS011;48891;49.220;6.920;2023-06-26T04:00:14;8.30;;;6.07;;
62832;SDS011;48891;49.220;6.920;2023-06-26T04:02:39;8.57;;;5.90;;
62832;SDS011;48891;49.220;6.920;2023-06-26T04:05:04;7.73;;;5.93;;
62832;SDS011;48891;49.220;6.920;2023-06-26T04:07:30;9.43;;;5.97;;
62832;SDS011;48891;49.220;6.920;2023-06-26T04:09:55;7.87;;;6.00;;
62832;SDS011;48891;49.220;6.920;2023-06-26T04:12:20;7.93;;;6.10;;
62832;SDS011;48891;49.220;6.920;2023-06-26T04:14:45;7.85;;;6.45;;
62832;SDS011;48891;49.220;6.920;2023-06-26T04:17:10;8.07;;;6.00;;
62832;SDS011;48891;49.220;6.920;2023-06-26T04:19:35;8.98;;;6.22;;
62832;SDS011;48891;49.220;6.920;2023-06-26T04:22:00;7.82;;;5.97;;
62832;SDS011;48891;49.220;6.920;2023-06-26T04:24:25;8.15;;;5.85;;
62832;SDS011;48891;49.220;6.920;2023-06-26T04:26:50;7.95;;;5.20;;
62832;SDS011;48891;49.220;6.920;2023-06-26T04:29:16;7.68;;;5.80;;
62832;SDS011;48891;49.220;6.920;2023-06-26T04:31:41;9.13;;;5.75;;
62832;SDS011;48891;49.220;6.920;2023-06-26T04:34:06;8.07;;;6.00;;
62832;SDS011;48891;49.220;6.920;2023-06-26T04:36:31;7.18;;;6.15;;
62832;SDS011;48891;49.220;6.920;2023-06-26T04:38:56;7.80;;;5.93;;
62832;SDS011;48891;49.220;6.920;2023-06-26T04:41:21;7.63;;;5.78;;
62832;SDS011;48891;49.220;6.920;2023-06-26T04:43:47;7.07;;;5.50;;
62832;SDS011;48891;49.220;6.920;2023-06-26T04:46:12;8.32;;;6.18;;
62832;SDS011;48891;49.220;6.920;2023-06-26T04:48:37;7.60;;;5.80;;
62832;SDS011;48891;49.220;6.920;2023-06-26T04:51:02;9.48;;;5.95;;
62832;SDS011;48891;49.220;6.920;2023-06-26T04:53:27;9.45;;;5.93;;
62832;SDS011;48891;49.220;6.920;2023-06-26T04:55:52;7.93;;;5.90;;
62832;SDS011;48891;49.220;6.920;2023-06-26T04:58:18;9.25;;;5.95;;
62832;SDS011;48891;49.220;6.920;2023-06-26T05:00:43;7.25;;;5.32;;
62832;SDS011;48891;49.220;6.920;2023-06-26T05:03:12;7.80;;;6.15;;
62832;SDS011;48891;49.220;6.920;2023-06-26T05:05:37;8.25;;;6.00;;
62832;SDS011;48891;49.220;6.920;2023-06-26T05:08:15;8.47;;;5.93;;
62832;SDS011;48891;49.220;6.920;2023-06-26T05:13:05;7.53;;;5.63;;
62832;SDS011;48891;49.220;6.920;2023-06-26T05:15:30;9.38;;;5.95;;
62832;SDS011;48891;49.220;6.920;2023-06-26T05:17:55;8.25;;;6.22;;
62832;SDS011;48891;49.220;6.920;2023-06-26T05:20:20;8.05;;;5.80;;
62832;SDS011;48891;49.220;6.920;2023-06-26T05:22:45;7.57;;;5.93;;
62832;SDS011;48891;49.220;6.920;2023-06-26T05:25:11;8.63;;;6.03;;
62832;SDS011;48891;49.220;6.920;2023-06-26T05:27:36;7.57;;;5.43;;
62832;SDS011;48891;49.220;6.920;2023-06-26T05:30:02;8.13;;;5.57;;
62832;SDS011;48891;49.220;6.920;2023-06-26T05:32:27;8.23;;;5.75;;
62832;SDS011;48891;49.220;6.920;2023-06-26T05:34:53;8.98;;;5.78;;
62832;SDS011;48891;49.220;6.920;2023-06-26T05:37:19;7.47;;;5.63;;
62832;SDS011;48891;49.220;6.920;2023-06-26T05:39:45;7.93;;;5.60;;
62832;SDS011;48891;49.220;6.920;2023-06-26T05:42:10;8.70;;;5.75;;
62832;SDS011;48891;49.220;6.920;2023-06-26T05:44:36;7.85;;;5.55;;
62832;SDS011;48891;49.220;6.920;2023-06-26T05:47:01;8.02;;;5.75;;
62832;SDS011;48891;49.220;6.920;2023-06-26T05:49:26;7.78;;;5.75;;
62832;SDS011;48891;49.220;6.920;2023-06-26T05:51:51;7.63;;;5.60;;
62832;SDS011;48891;49.220;6.920;2023-06-26T05:54:16;7.95;;;5.68;;
62832;SDS011;48891;49.220;6.920;2023-06-26T05:56:41;8.57;;;5.90;;
62832;SDS011;48891;49.220;6.920;2023-06-26T05:59:07;7.55;;;5.45;;
62832;SDS011;48891;49.220;6.920;2023-06-26T06:01:33;7.35;;;5.65;;
62832;SDS011;48891;49.220;6.920;2023-06-26T06:03:58;8.00;;;5.85;;
62832;SDS011;48891;49.220;6.920;2023-06-26T06:06:23;8.45;;;5.47;;
62832;SDS011;48891;49.220;6.920;2023-06-26T06:08:48;7.38;;;5.75;;
62832;SDS011;48891;49.220;6.920;2023-06-26T06:11:13;7.90;;;6.00;;
62832;SDS011;48891;49.220;6.920;2023-06-26T06:13:38;7.47;;;5.80;;
62832;SDS011;48891;49.220;6.920;2023-06-26T06:16:03;6.97;;;5.53;;
62832;SDS011;48891;49.220;6.920;2023-06-26T06:18:29;6.68;;;5.15;;
62832;SDS011;48891;49.220;6.920;2023-06-26T06:20:54;7.47;;;5.83;;
62832;SDS011;48891;49.220;6.920;2023-06-26T06:23:19;7.47;;;5.72;;
62832;SDS011;48891;49.220;6.920;2023-06-26T06:25:44;7.78;;;5.38;;
62832;SDS011;48891;49.220;6.920;2023-06-26T06:28:09;7.88;;;5.72;;
62832;SDS011;48891;49.220;6.920;2023-06-26T06:30:34;7.50;;;5.75;;
62832;SDS011;48891;49.220;6.920;2023-06-26T06:32:59;7.43;;;5.15;;
62832;SDS011;48891;49.220;6.920;2023-06-26T06:35:24;6.80;;;5.20;;
62832;SDS011;48891;49.220;6.920;2023-06-26T06:37:50;7.60;;;5.70;;
62832;SDS011;48891;49.220;6.920;2023-06-26T06:40:15;7.67;;;5.30;;
62832;SDS011;48891;49.220;6.920;2023-06-26T06:42:40;7.20;;;5.57;;
62832;SDS011;48891;49.220;6.920;2023-06-26T06:45:05;7.72;;;5.47;;
62832;SDS011;48891;49.220;6.920;2023-06-26T06:47:33;6.85;;;5.10;;
62832;SDS011;48891;49.220;6.920;2023-06-26T06:49:59;8.63;;;5.50;;
62832;SDS011;48891;49.220;6.920;2023-06-26T06:52:24;7.53;;;5.78;;
62832;SDS011;48891;49.220;6.920;2023-06-26T06:54:57;8.25;;;5.78;;
62832;SDS011;48891;49.220;6.920;2023-06-26T06:57:22;7.05;;;5.15;;
62832;SDS011;48891;49.220;6.920;2023-06-26T06:59:47;6.78;;;5.30;;
62832;SDS011;48891;49.220;6.920;2023-06-26T07:02:12;7.18;;;5.20;;
62832;SDS011;48891;49.220;6.920;2023-06-26T07:04:37;6.75;;;5.00;;
62832;SDS011;48891;49.220;6.920;2023-06-26T07:07:03;6.65;;;5.03;;
62832;SDS011;48891;49.220;6.920;2023-06-26T07:09:28;6.60;;;4.93;;
62832;SDS011;48891;49.220;6.920;2023-06-26T07:11:53;7.05;;;4.97;;
62832;SDS011;48891;49.220;6.920;2023-06-26T07:14:18;6.43;;;4.80;;
62832;SDS011;48891;49.220;6.920;2023-06-26T07:16:43;6.30;;;4.40;;
62832;SDS011;48891;49.220;6.920;2023-06-26T07:19:08;5.47;;;4.35;;
62832;SDS011;48891;49.220;6.920;2023-06-26T07:21:33;6.05;;;4.45;;
62832;SDS011;48891;49.220;6.920;2023-06-26T07:23:58;6.88;;;4.47;;
62832;SDS011;48891;49.220;6.920;2023-06-26T07:26:23;6.28;;;4.45;;
62832;SDS011;48891;49.220;6.920;2023-06-26T07:28:49;6.10;;;4.50;;
62832;SDS011;48891;49.220;6.920;2023-06-26T07:31:14;7.70;;;4.70;;
62832;SDS011;48891;49.220;6.920;2023-06-26T07:33:39;6.80;;;5.03;;
62832;SDS011;48891;49.220;6.920;2023-06-26T07:36:04;6.22;;;4.25;;
62832;SDS011;48891;49.220;6.920;2023-06-26T07:38:29;6.90;;;4.23;;
62832;SDS011;48891;49.220;6.920;2023-06-26T07:40:54;6.68;;;4.35;;
62832;SDS011;48891;49.220;6.920;2023-06-26T07:43:19;6.32;;;4.70;;
62832;SDS011;48891;49.220;6.920;2023-06-26T07:45:44;6.63;;;4.65;;
62832;SDS011;48891;49.220;6.920;2023-06-26T07:48:10;6.35;;;4.07;;
62832;SDS011;48891;49.220;6.920;2023-06-26T07:50:35;6.35;;;4.22;;
62832;SDS011;48891;49.220;6.920;2023-06-26T07:53:00;8.07;;;4.53;;
62832;SDS011;48891;49.220;6.920;2023-06-26T07:55:25;5.55;;;4.25;;
62832;SDS011;48891;49.220;6.920;2023-06-26T07:57:50;6.25;;;4.22;;
62832;SDS011;48891;49.220;6.920;2023-06-26T08:00:15;4.75;;;3.70;;
62832;SDS011;48891;49.220;6.920;2023-06-26T08:02:40;5.27;;;3.73;;
62832;SDS011;48891;49.220;6.920;2023-06-26T08:05:05;6.93;;;4.25;;
62832;SDS011;48891;49.220;6.920;2023-06-26T08:07:31;6.07;;;4.20;;
62832;SDS011;48891;49.220;6.920;2023-06-26T08:09:56;5.97;;;4.00;;
62832;SDS011;48891;49.220;6.920;2023-06-26T08:12:21;6.50;;;3.88;;
62832;SDS011;48891;49.220;6.920;2023-06-26T08:14:46;5.25;;;3.70;;
62832;SDS011;48891;49.220;6.920;2023-06-26T08:17:11;5.68;;;3.85;;
62832;SDS011;48891;49.220;6.920;2023-06-26T08:19:36;5.60;;;3.30;;
62832;SDS011;48891;49.220;6.920;2023-06-26T08:22:01;5.00;;;3.65;;
62832;SDS011;48891;49.220;6.920;2023-06-26T08:24:26;6.07;;;3.80;;
62832;SDS011;48891;49.220;6.920;2023-06-26T08:26:52;5.85;;;3.70;;
62832;SDS011;48891;49.220;6.920;2023-06-26T08:29:17;4.68;;;3.33;;
62832;SDS011;48891;49.220;6.920;2023-06-26T08:31:42;5.53;;;3.60;;
62832;SDS011;48891;49.220;6.920;2023-06-26T08:34:08;4.80;;;3.47;;
62832;SDS011;48891;49.220;6.920;2023-06-26T08:36:33;5.05;;;3.50;;
62832;SDS011;48891;49.220;6.920;2023-06-26T08:38:58;4.18;;;3.13;;
62832;SDS011;48891;49.220;6.920;2023-06-26T08:41:23;4.53;;;3.40;;
62832;SDS011;48891;49.220;6.920;2023-06-26T08:43:48;4.53;;;3.03;;
62832;SDS011;48891;49.220;6.920;2023-06-26T08:46:14;5.68;;;3.50;;
62832;SDS011;48891;49.220;6.920;2023-06-26T08:48:39;5.43;;;3.50;;
62832;SDS011;48891;49.220;6.920;2023-06-26T08:51:09;4.95;;;3.25;;
62832;SDS011;48891;49.220;6.920;2023-06-26T08:58:27;5.80;;;3.22;;
62832;SDS011;48891;49.220;6.920;2023-06-26T09:00:52;4.47;;;3.28;;
62832;SDS011;48891;49.220;6.920;2023-06-26T09:03:18;6.13;;;3.42;;
62832;SDS011;48891;49.220;6.920;2023-06-26T09:05:43;4.20;;;3.28;;
62832;SDS011;48891;49.220;6.920;2023-06-26T09:08:08;4.22;;;3.00;;
62832;SDS011;48891;49.220;6.920;2023-06-26T09:10:33;5.05;;;3.22;;
62832;SDS011;48891;49.220;6.920;2023-06-26T09:12:59;4.73;;;3.50;;
62832;SDS011;48891;49.220;6.920;2023-06-26T09:15:24;4.97;;;3.17;;
62832;SDS011;48891;49.220;6.920;2023-06-26T09:17:49;5.03;;;3.03;;
62832;SDS011;48891;49.220;6.920;2023-06-26T09:20:14;4.95;;;2.67;;
62832;SDS011;48891;49.220;6.920;2023-06-26T09:22:41;5.50;;;3.10;;
62832;SDS011;48891;49.220;6.920;2023-06-26T09:25:06;4.93;;;3.05;;
62832;SDS011;48891;49.220;6.920;2023-06-26T09:27:32;3.90;;;2.90;;
62832;SDS011;48891;49.220;6.920;2023-06-26T09:29:57;4.33;;;2.93;;
62832;SDS011;48891;49.220;6.920;2023-06-26T09:32:26;4.63;;;2.95;;
62832;SDS011;48891;49.220;6.920;2023-06-26T09:34:52;5.03;;;2.83;;
62832;SDS011;48891;49.220;6.920;2023-06-26T09:37:17;4.38;;;2.63;;
62832;SDS011;48891;49.220;6.920;2023-06-26T09:39:42;4.30;;;3.15;;
62832;SDS011;48891;49.220;6.920;2023-06-26T09:42:07;4.57;;;2.97;;
62832;SDS011;48891;49.220;6.920;2023-06-26T09:44:33;4.37;;;2.70;;
62832;SDS011;48891;49.220;6.920;2023-06-26T09:46:58;3.97;;;2.67;;
62832;SDS011;48891;49.220;6.920;2023-06-26T09:49:23;4.45;;;3.05;;
62832;SDS011;48891;49.220;6.920;2023-06-26T09:51:48;4.53;;;2.90;;
62832;SDS011;48891;49.220;6.920;2023-06-26T09:54:15;3.70;;;2.63;;
62832;SDS011;48891;49.220;6.920;2023-06-26T09:56:41;3.90;;;2.73;;
62832;SDS011;48891;49.220;6.920;2023-06-26T09:59:06;4.10;;;2.97;;
62832;SDS011;48891;49.220;6.920;2023-06-26T10:01:31;4.67;;;2.93;;
62832;SDS011;48891;49.220;6.920;2023-06-26T10:03:56;6.03;;;3.13;;
62832;SDS011;48891;49.220;6.920;2023-06-26T10:06:24;4.32;;;3.08;;
62832;SDS011;48891;49.220;6.920;2023-06-26T10:08:51;4.63;;;2.85;;
62832;SDS011;48891;49.220;6.920;2023-06-26T10:11:18;5.10;;;2.97;;
62832;SDS011;48891;49.220;6.920;2023-06-26T10:13:44;4.07;;;2.80;;
62832;SDS011;48891;49.220;6.920;2023-06-26T10:16:10;4.63;;;2.78;;
62832;SDS011;48891;49.220;6.920;2023-06-26T10:18:36;4.70;;;2.65;;
62832;SDS011;48891;49.220;6.920;2023-06-26T10:21:03;5.40;;;3.00;;
62832;SDS011;48891;49.220;6.920;2023-06-26T10:23:29;5.10;;;2.75;;
62832;SDS011;48891;49.220;6.920;2023-06-26T10:25:55;4.25;;;2.80;;
62832;SDS011;48891;49.220;6.920;2023-06-26T10:28:22;5.10;;;2.90;;
62832;SDS011;48891;49.220;6.920;2023-06-26T10:30:48;4.90;;;2.90;;
62832;SDS011;48891;49.220;6.920;2023-06-26T10:33:15;5.10;;;3.00;;
62832;SDS011;48891;49.220;6.920;2023-06-26T10:35:43;4.87;;;3.00;;
62832;SDS011;48891;49.220;6.920;2023-06-26T10:38:09;4.28;;;2.88;;
62832;SDS011;48891;49.220;6.920;2023-06-26T10:40:43;5.10;;;3.03;;
62832;SDS011;48891;49.220;6.920;2023-06-26T10:43:10;4.72;;;2.95;;
62832;SDS011;48891;49.220;6.920;2023-06-26T10:45:36;4.25;;;2.95;;
62832;SDS011;48891;49.220;6.920;2023-06-26T10:48:01;6.10;;;3.17;;
62832;SDS011;48891;49.220;6.920;2023-06-26T10:50:30;7.47;;;3.08;;
62832;SDS011;48891;49.220;6.920;2023-06-26T10:53:11;4.70;;;2.85;;
62832;SDS011;48891;49.220;6.920;2023-06-26T10:55:37;4.43;;;2.63;;
62832;SDS011;48891;49.220;6.920;2023-06-26T10:58:02;5.18;;;2.50;;
62832;SDS011;48891;49.220;6.920;2023-06-26T11:00:27;5.28;;;2.80;;
62832;SDS011;48891;49.220;6.920;2023-06-26T11:02:52;4.22;;;2.55;;
62832;SDS011;48891;49.220;6.920;2023-06-26T11:05:24;4.28;;;2.67;;
62832;SDS011;48891;49.220;6.920;2023-06-26T11:08:03;4.63;;;2.67;;
62832;SDS011;48891;49.220;6.920;2023-06-26T11:10:28;4.03;;;2.47;;
62832;SDS011;48891;49.220;6.920;2023-06-26T11:12:53;5.32;;;2.78;;
62832;SDS011;48891;49.220;6.920;2023-06-26T11:15:19;3.75;;;2.65;;
62832;SDS011;48891;49.220;6.920;2023-06-26T11:17:44;4.57;;;2.38;;
62832;SDS011;48891;49.220;6.920;2023-06-26T11:20:10;3.80;;;2.60;;
62832;SDS011;48891;49.220;6.920;2023-06-26T11:22:37;4.78;;;2.53;;
62832;SDS011;48891;49.220;6.920;2023-06-26T11:25:02;4.38;;;2.28;;
62832;SDS011;48891;49.220;6.920;2023-06-26T11:30:02;4.20;;;2.38;;
62832;SDS011;48891;49.220;6.920;2023-06-26T11:32:27;4.75;;;2.63;;
62832;SDS011;48891;49.220;6.920;2023-06-26T11:34:52;4.13;;;2.40;;
62832;SDS011;48891;49.220;6.920;2023-06-26T11:37:17;5.30;;;2.45;;
62832;SDS011;48891;49.220;6.920;2023-06-26T11:39:43;5.07;;;2.30;;
62832;SDS011;48891;49.220;6.920;2023-06-26T11:42:08;4.45;;;2.28;;
62832;SDS011;48891;49.220;6.920;2023-06-26T11:44:39;3.95;;;2.38;;
62832;SDS011;48891;49.220;6.920;2023-06-26T11:47:04;4.10;;;2.40;;
62832;SDS011;48891;49.220;6.920;2023-06-26T11:49:30;3.20;;;2.20;;
62832;SDS011;48891;49.220;6.920;2023-06-26T11:51:55;4.10;;;2.20;;
62832;SDS011;48891;49.220;6.920;2023-06-26T11:54:24;4.32;;;2.40;;
62832;SDS011;48891;49.220;6.920;2023-06-26T11:56:56;4.65;;;2.40;;
62832;SDS011;48891;49.220;6.920;2023-06-26T11:59:21;4.57;;;2.60;;
62832;SDS011;48891;49.220;6.920;2023-06-26T12:01:47;3.97;;;2.30;;
62832;SDS011;48891;49.220;6.920;2023-06-26T12:04:13;5.25;;;2.70;;
62832;SDS011;48891;49.220;6.920;2023-06-26T12:06:40;3.50;;;2.15;;
62832;SDS011;48891;49.220;6.920;2023-06-26T12:09:09;3.97;;;2.60;;
62832;SDS011;48891;49.220;6.920;2023-06-26T12:11:35;3.08;;;2.00;;
62832;SDS011;48891;49.220;6.920;2023-06-26T12:14:01;3.80;;;2.08;;
62832;SDS011;48891;49.220;6.920;2023-06-26T12:16:27;7.35;;;2.72;;
62832;SDS011;48891;49.220;6.920;2023-06-26T12:18:57;3.35;;;2.08;;
62832;SDS011;48891;49.220;6.920;2023-06-26T12:24:24;3.65;;;2.28;;
62832;SDS011;48891;49.220;6.920;2023-06-26T12:26:53;3.30;;;2.10;;
62832;SDS011;48891;49.220;6.920;2023-06-26T12:29:19;3.80;;;2.13;;
62832;SDS011;48891;49.220;6.920;2023-06-26T12:31:45;4.40;;;2.28;;
62832;SDS011;48891;49.220;6.920;2023-06-26T12:34:11;4.53;;;2.22;;
62832;SDS011;48891;49.220;6.920;2023-06-26T12:36:40;4.38;;;2.50;;
62832;SDS011;48891;49.220;6.920;2023-06-26T12:39:05;2.80;;;1.83;;
62832;SDS011;48891;49.220;6.920;2023-06-26T12:41:30;3.70;;;2.07;;
62832;SDS011;48891;49.220;6.920;2023-06-26T12:43:56;3.90;;;2.15;;
62832;SDS011;48891;49.220;6.920;2023-06-26T12:46:21;3.30;;;2.00;;
62832;SDS011;48891;49.220;6.920;2023-06-26T12:48:57;3.92;;;2.00;;
62832;SDS011;48891;49.220;6.920;2023-06-26T12:51:22;3.83;;;2.13;;
62832;SDS011;48891;49.220;6.920;2023-06-26T12:53:47;3.47;;;2.10;;
62832;SDS011;48891;49.220;6.920;2023-06-26T12:56:12;3.83;;;2.22;;
62832;SDS011;48891;49.220;6.920;2023-06-26T12:58:38;3.22;;;1.90;;
62832;SDS011;48891;49.220;6.920;2023-06-26T13:01:04;3.67;;;2.07;;
62832;SDS011;48891;49.220;6.920;2023-06-26T13:03:29;3.33;;;1.90;;
62832;SDS011;48891;49.220;6.920;2023-06-26T13:05:54;4.00;;;2.30;;
62832;SDS011;48891;49.220;6.920;2023-06-26T13:08:19;4.00;;;1.90;;
62832;SDS011;48891;49.220;6.920;2023-06-26T13:10:44;2.97;;;1.90;;
62832;SDS011;48891;49.220;6.920;2023-06-26T13:13:10;3.03;;;1.80;;
62832;SDS011;48891;49.220;6.920;2023-06-26T13:15:35;3.67;;;2.03;;
62832;SDS011;48891;49.220;6.920;2023-06-26T13:18:00;3.90;;;1.75;;
62832;SDS011;48891;49.220;6.920;2023-06-26T13:20:25;3.33;;;1.77;;
62832;SDS011;48891;49.220;6.920;2023-06-26T13:22:50;3.07;;;1.70;;
62832;SDS011;48891;49.220;6.920;2023-06-26T13:25:16;2.55;;;1.77;;
62832;SDS011;48891;49.220;6.920;2023-06-26T13:27:41;2.83;;;1.90;;
62832;SDS011;48891;49.220;6.920;2023-06-26T13:30:06;3.25;;;1.83;;
62832;SDS011;48891;49.220;6.920;2023-06-26T13:32:31;2.95;;;1.70;;
62832;SDS011;48891;49.220;6.920;2023-06-26T13:34:56;3.10;;;1.88;;
62832;SDS011;48891;49.220;6.920;2023-06-26T13:37:21;2.78;;;1.73;;
62832;SDS011;48891;49.220;6.920;2023-06-26T13:39:46;2.90;;;1.70;;
62832;SDS011;48891;49.220;6.920;2023-06-26T13:42:12;3.85;;;1.90;;
62832;SDS011;48891;49.220;6.920;2023-06-26T13:44:37;3.17;;;1.70;;
62832;SDS011;48891;49.220;6.920;2023-06-26T13:47:02;2.92;;;1.73;;
62832;SDS011;48891;49.220;6.920;2023-06-26T13:49:27;4.60;;;1.90;;
62832;SDS011;48891;49.220;6.920;2023-06-26T13:51:52;2.63;;;1.67;;
62832;SDS011;48891;49.220;6.920;2023-06-26T13:54:17;2.70;;;1.92;;
62832;SDS011;48891;49.220;6.920;2023-06-26T13:56:42;2.80;;;1.60;;
62832;SDS011;48891;49.220;6.920;2023-06-26T13:59:07;3.97;;;1.80;;
62832;SDS011;48891;49.220;6.920;2023-06-26T14:01:33;3.15;;;1.90;;
62832;SDS011;48891;49.220;6.920;2023-06-26T14:03:58;3.45;;;1.75;;
62832;SDS011;48891;49.220;6.920;2023-06-26T14:06:23;2.80;;;1.80;;
62832;SDS011;48891;49.220;6.920;2023-06-26T14:08:48;4.15;;;1.95;;
62832;SDS011;48891;49.220;6.920;2023-06-26T14:11:13;2.67;;;1.60;;
62832;SDS011;48891;49.220;6.920;2023-06-26T14:13:38;2.97;;;1.77;;
62832;SDS011;48891;49.220;6.920;2023-06-26T14:16:03;4.55;;;1.88;;
62832;SDS011;48891;49.220;6.920;2023-06-26T14:18:28;3.30;;;1.70;;
62832;SDS011;48891;49.220;6.920;2023-06-26T14:20:54;2.88;;;1.70;;
62832;SDS011;48891;49.220;6.920;2023-06-26T14:23:19;3.70;;;1.70;;
62832;SDS011;48891;49.220;6.920;2023-06-26T14:25:44;3.35;;;1.77;;
62832;SDS011;48891;49.220;6.920;2023-06-26T14:28:09;3.08;;;1.90;;
62832;SDS011;48891;49.220;6.920;2023-06-26T14:30:34;3.03;;;1.77;;
62832;SDS011;48891;49.220;6.920;2023-06-26T14:32:59;3.17;;;1.80;;
62832;SDS011;48891;49.220;6.920;2023-06-26T14:35:24;3.55;;;1.90;;
62832;SDS011;48891;49.220;6.920;2023-06-26T14:37:49;3.42;;;2.00;;
62832;SDS011;48891;49.220;6.920;2023-06-26T14:40:14;2.42;;;1.30;;
62832;SDS011;48891;49.220;6.920;2023-06-26T14:42:40;2.72;;;1.60;;
62832;SDS011;48891;49.220;6.920;2023-06-26T14:45:05;4.10;;;1.88;;
62832;SDS011;48891;49.220;6.920;2023-06-26T14:47:30;3.95;;;1.90;;
62832;SDS011;48891;49.220;6.920;2023-06-26T14:49:55;2.97;;;1.70;;
62832;SDS011;48891;49.220;6.920;2023-06-26T14:52:20;3.20;;;1.80;;
62832;SDS011;48891;49.220;6.920;2023-06-26T14:54:45;3.55;;;1.98;;
62832;SDS011;48891;49.220;6.920;2023-06-26T14:57:11;3.17;;;1.55;;
62832;SDS011;48891;49.220;6.920;2023-06-26T14:59:36;2.93;;;1.73;;